sensor_id;sensor_type;location;lat;lon;timestamp;P1;durP1;ratioP1;P2;durP2;ratioP2
69203;SDS011;56317;27.658;85.326;2023-05-10T00:01:36;107.50;;;47.80;;
69203;SDS011;56317;27.658;85.326;2023-05-10T00:04:03;96.13;;;43.15;;
69203;SDS011;56317;27.658;85.326;2023-05-10T00:06:30;108.22;;;46.35;;
69203;SDS011;56317;27.658;85.326;2023-05-10T00:08:58;116.20;;;45.20;;
69203;SDS011;56317;27.658;85.326;2023-05-10T00:11:25;95.22;;;44.58;;
69203;SDS011;56317;27.658;85.326;2023-05-10T00:13:52;108.50;;;48.55;;
69203;SDS011;56317;27.658;85.326;2023-05-10T00:16:19;120.72;;;46.15;;
69203;SDS011;56317;27.658;85.326;2023-05-10T00:18:47;105.60;;;45.97;;
69203;SDS011;56317;27.658;85.326;2023-05-10T00:21:14;142.93;;;52.22;;
69203;SDS011;56317;27.658;85.326;2023-05-10T00:23:41;118.18;;;45.75;;
69203;SDS011;56317;27.658;85.326;2023-05-10T00:26:08;96.88;;;42.58;;
69203;SDS011;56317;27.658;85.326;2023-05-10T00:28:36;98.47;;;46.10;;
69203;SDS011;56317;27.658;85.326;2023-05-10T00:31:03;107.65;;;42.88;;
69203;SDS011;56317;27.658;85.326;2023-05-10T00:33:30;114.78;;;48.58;;
69203;SDS011;56317;27.658;85.326;2023-05-10T00:35:57;96.57;;;45.55;;
69203;SDS011;56317;27.658;85.326;2023-05-10T00:38:24;86.80;;;39.67;;
69203;SDS011;56317;27.658;85.326;2023-05-10T00:40:52;92.25;;;40.35;;
69203;SDS011;56317;27.658;85.326;2023-05-10T00:43:19;90.95;;;40.78;;
69203;SDS011;56317;27.658;85.326;2023-05-10T00:45:46;95.57;;;41.47;;
69203;SDS011;56317;27.658;85.326;2023-05-10T00:48:13;88.90;;;40.15;;
69203;SDS011;56317;27.658;85.326;2023-05-10T00:50:41;92.28;;;43.90;;
69203;SDS011;56317;27.658;85.326;2023-05-10T00:53:08;105.13;;;47.05;;
69203;SDS011;56317;27.658;85.326;2023-05-10T00:55:36;101.10;;;50.22;;
69203;SDS011;56317;27.658;85.326;2023-05-10T00:58:04;113.18;;;50.33;;
69203;SDS011;56317;27.658;85.326;2023-05-10T01:00:32;129.80;;;64.53;;
69203;SDS011;56317;27.658;85.326;2023-05-10T01:03:00;129.65;;;62.58;;
69203;SDS011;56317;27.658;85.326;2023-05-10T01:05:27;118.10;;;61.20;;
69203;SDS011;56317;27.658;85.326;2023-05-10T01:07:54;117.43;;;56.35;;
69203;SDS011;56317;27.658;85.326;2023-05-10T01:10:22;107.20;;;51.83;;
69203;SDS011;56317;27.658;85.326;2023-05-10T01:12:49;103.63;;;51.58;;
69203;SDS011;56317;27.658;85.326;2023-05-10T01:15:17;107.43;;;49.58;;
69203;SDS011;56317;27.658;85.326;2023-05-10T01:17:46;98.50;;;45.05;;
69203;SDS011;56317;27.658;85.326;2023-05-10T01:20:14;98.75;;;47.08;;
69203;SDS011;56317;27.658;85.326;2023-05-10T01:31:03;87.20;;;43.85;;
69203;SDS011;56317;27.658;85.326;2023-05-10T01:33:46;98.07;;;44.25;;
69203;SDS011;56317;27.658;85.326;2023-05-10T01:39:08;79.03;;;41.53;;
69203;SDS011;56317;27.658;85.326;2023-05-10T01:42:02;85.28;;;39.72;;
69203;SDS011;56317;27.658;85.326;2023-05-10T01:47:50;78.18;;;38.35;;
69203;SDS011;56317;27.658;85.326;2023-05-10T01:50:29;79.57;;;38.45;;
69203;SDS011;56317;27.658;85.326;2023-05-10T01:52:58;84.70;;;39.15;;
69203;SDS011;56317;27.658;85.326;2023-05-10T01:55:32;78.68;;;37.95;;
69203;SDS011;56317;27.658;85.326;2023-05-10T01:58:13;80.43;;;36.95;;
69203;SDS011;56317;27.658;85.326;2023-05-10T02:00:43;77.25;;;36.55;;
69203;SDS011;56317;27.658;85.326;2023-05-10T02:03:13;78.18;;;38.85;;
69203;SDS011;56317;27.658;85.326;2023-05-10T02:05:42;85.40;;;39.22;;
69203;SDS011;56317;27.658;85.326;2023-05-10T02:08:11;75.28;;;36.83;;
69203;SDS011;56317;27.658;85.326;2023-05-10T02:10:41;77.13;;;36.55;;
69203;SDS011;56317;27.658;85.326;2023-05-10T02:13:10;77.05;;;36.28;;
69203;SDS011;56317;27.658;85.326;2023-05-10T02:15:39;67.95;;;34.70;;
69203;SDS011;56317;27.658;85.326;2023-05-10T02:18:07;61.60;;;32.45;;
69203;SDS011;56317;27.658;85.326;2023-05-10T02:20:36;69.70;;;32.65;;
69203;SDS011;56317;27.658;85.326;2023-05-10T02:23:05;65.07;;;30.50;;
69203;SDS011;56317;27.658;85.326;2023-05-10T02:25:33;69.20;;;31.55;;
69203;SDS011;56317;27.658;85.326;2023-05-10T02:28:02;58.55;;;27.95;;
69203;SDS011;56317;27.658;85.326;2023-05-10T02:30:32;62.95;;;28.45;;
69203;SDS011;56317;27.658;85.326;2023-05-10T02:33:01;59.65;;;26.45;;
69203;SDS011;56317;27.658;85.326;2023-05-10T02:35:30;59.58;;;28.85;;
69203;SDS011;56317;27.658;85.326;2023-05-10T02:37:59;61.65;;;28.75;;
69203;SDS011;56317;27.658;85.326;2023-05-10T02:40:27;60.00;;;27.23;;
69203;SDS011;56317;27.658;85.326;2023-05-10T02:42:56;54.03;;;25.90;;
69203;SDS011;56317;27.658;85.326;2023-05-10T02:45:26;53.97;;;25.58;;
69203;SDS011;56317;27.658;85.326;2023-05-10T02:47:56;49.58;;;27.30;;
69203;SDS011;56317;27.658;85.326;2023-05-10T02:50:25;50.78;;;24.92;;
69203;SDS011;56317;27.658;85.326;2023-05-10T02:52:55;54.45;;;25.00;;
69203;SDS011;56317;27.658;85.326;2023-05-10T02:55:33;51.50;;;27.77;;
69203;SDS011;56317;27.658;85.326;2023-05-10T02:58:03;66.85;;;29.42;;
69203;SDS011;56317;27.658;85.326;2023-05-10T03:00:31;56.92;;;27.65;;
69203;SDS011;56317;27.658;85.326;2023-05-10T03:02:59;62.00;;;29.30;;
69203;SDS011;56317;27.658;85.326;2023-05-10T03:05:26;61.67;;;29.63;;
69203;SDS011;56317;27.658;85.326;2023-05-10T03:07:54;76.53;;;31.80;;
69203;SDS011;56317;27.658;85.326;2023-05-10T03:10:23;64.35;;;30.40;;
69203;SDS011;56317;27.658;85.326;2023-05-10T03:13:05;63.22;;;31.65;;
69203;SDS011;56317;27.658;85.326;2023-05-10T03:18:33;58.08;;;27.95;;
69203;SDS011;56317;27.658;85.326;2023-05-10T03:21:25;64.97;;;30.92;;
69203;SDS011;56317;27.658;85.326;2023-05-10T03:24:07;77.90;;;30.58;;
69203;SDS011;56317;27.658;85.326;2023-05-10T03:26:37;64.53;;;29.38;;
69203;SDS011;56317;27.658;85.326;2023-05-10T03:29:06;71.30;;;30.15;;
69203;SDS011;56317;27.658;85.326;2023-05-10T03:31:34;66.82;;;28.83;;
69203;SDS011;56317;27.658;85.326;2023-05-10T03:34:02;64.63;;;31.50;;
69203;SDS011;56317;27.658;85.326;2023-05-10T03:36:29;56.50;;;25.52;;
69203;SDS011;56317;27.658;85.326;2023-05-10T03:38:56;62.17;;;29.95;;
69203;SDS011;56317;27.658;85.326;2023-05-10T03:41:23;57.70;;;25.75;;
69203;SDS011;56317;27.658;85.326;2023-05-10T03:43:51;49.00;;;24.92;;
69203;SDS011;56317;27.658;85.326;2023-05-10T03:46:18;56.55;;;23.10;;
69203;SDS011;56317;27.658;85.326;2023-05-10T03:48:45;50.03;;;19.95;;
69203;SDS011;56317;27.658;85.326;2023-05-10T03:51:13;39.40;;;18.58;;
69203;SDS011;56317;27.658;85.326;2023-05-10T03:53:40;36.40;;;19.48;;
69203;SDS011;56317;27.658;85.326;2023-05-10T03:56:07;42.70;;;17.42;;
69203;SDS011;56317;27.658;85.326;2023-05-10T03:58:34;38.22;;;18.90;;
69203;SDS011;56317;27.658;85.326;2023-05-10T04:01:02;41.95;;;19.30;;
69203;SDS011;56317;27.658;85.326;2023-05-10T04:03:29;45.45;;;18.48;;
69203;SDS011;56317;27.658;85.326;2023-05-10T04:06:00;39.03;;;19.42;;
69203;SDS011;56317;27.658;85.326;2023-05-10T04:08:27;45.90;;;18.92;;
69203;SDS011;56317;27.658;85.326;2023-05-10T04:11:04;49.10;;;19.75;;
69203;SDS011;56317;27.658;85.326;2023-05-10T04:13:32;45.33;;;17.38;;
69203;SDS011;56317;27.658;85.326;2023-05-10T04:16:00;45.53;;;17.25;;
69203;SDS011;56317;27.658;85.326;2023-05-10T04:18:28;40.28;;;17.30;;
69203;SDS011;56317;27.658;85.326;2023-05-10T04:20:55;35.00;;;17.00;;
69203;SDS011;56317;27.658;85.326;2023-05-10T04:23:22;37.08;;;15.98;;
69203;SDS011;56317;27.658;85.326;2023-05-10T04:25:50;34.80;;;16.80;;
69203;SDS011;56317;27.658;85.326;2023-05-10T04:28:17;42.63;;;15.60;;
69203;SDS011;56317;27.658;85.326;2023-05-10T04:30:44;40.10;;;17.42;;
69203;SDS011;56317;27.658;85.326;2023-05-10T04:33:11;36.80;;;17.35;;
69203;SDS011;56317;27.658;85.326;2023-05-10T04:35:40;37.13;;;16.90;;
69203;SDS011;56317;27.658;85.326;2023-05-10T04:38:07;36.25;;;15.02;;
69203;SDS011;56317;27.658;85.326;2023-05-10T04:40:35;35.58;;;15.18;;
69203;SDS011;56317;27.658;85.326;2023-05-10T04:43:02;41.08;;;16.23;;
69203;SDS011;56317;27.658;85.326;2023-05-10T04:45:29;35.28;;;14.88;;
69203;SDS011;56317;27.658;85.326;2023-05-10T04:47:56;39.50;;;14.95;;
69203;SDS011;56317;27.658;85.326;2023-05-10T04:50:26;40.03;;;14.98;;
69203;SDS011;56317;27.658;85.326;2023-05-10T04:52:54;34.78;;;14.18;;
69203;SDS011;56317;27.658;85.326;2023-05-10T04:55:21;37.42;;;15.90;;
69203;SDS011;56317;27.658;85.326;2023-05-10T04:57:49;28.65;;;14.85;;
69203;SDS011;56317;27.658;85.326;2023-05-10T05:00:16;34.22;;;15.63;;
69203;SDS011;56317;27.658;85.326;2023-05-10T05:02:44;36.95;;;15.98;;
69203;SDS011;56317;27.658;85.326;2023-05-10T05:05:12;40.88;;;15.23;;
69203;SDS011;56317;27.658;85.326;2023-05-10T05:07:45;34.08;;;14.70;;
69203;SDS011;56317;27.658;85.326;2023-05-10T05:10:13;36.72;;;15.85;;
69203;SDS011;56317;27.658;85.326;2023-05-10T05:12:40;34.05;;;14.75;;
69203;SDS011;56317;27.658;85.326;2023-05-10T05:15:07;21.85;;;11.13;;
69203;SDS011;56317;27.658;85.326;2023-05-10T05:17:35;23.98;;;10.60;;
69203;SDS011;56317;27.658;85.326;2023-05-10T05:20:02;24.30;;;9.68;;
69203;SDS011;56317;27.658;85.326;2023-05-10T05:22:30;32.70;;;11.45;;
69203;SDS011;56317;27.658;85.326;2023-05-10T05:24:58;21.58;;;9.07;;
69203;SDS011;56317;27.658;85.326;2023-05-10T05:27:26;24.30;;;9.60;;
69203;SDS011;56317;27.658;85.326;2023-05-10T05:29:56;19.50;;;9.35;;
69203;SDS011;56317;27.658;85.326;2023-05-10T05:32:24;31.42;;;10.27;;
69203;SDS011;56317;27.658;85.326;2023-05-10T05:34:52;21.48;;;8.60;;
69203;SDS011;56317;27.658;85.326;2023-05-10T05:37:20;31.52;;;10.43;;
69203;SDS011;56317;27.658;85.326;2023-05-10T05:39:50;22.55;;;9.32;;
69203;SDS011;56317;27.658;85.326;2023-05-10T05:42:18;22.98;;;9.45;;
69203;SDS011;56317;27.658;85.326;2023-05-10T05:44:45;25.00;;;9.85;;
69203;SDS011;56317;27.658;85.326;2023-05-10T05:47:12;20.98;;;9.50;;
69203;SDS011;56317;27.658;85.326;2023-05-10T05:49:40;29.15;;;9.93;;
69203;SDS011;56317;27.658;85.326;2023-05-10T05:52:07;23.75;;;9.73;;
69203;SDS011;56317;27.658;85.326;2023-05-10T05:54:35;30.83;;;10.73;;
69203;SDS011;56317;27.658;85.326;2023-05-10T05:57:05;24.88;;;9.43;;
69203;SDS011;56317;27.658;85.326;2023-05-10T05:59:44;25.98;;;10.18;;
69203;SDS011;56317;27.658;85.326;2023-05-10T06:02:11;24.75;;;9.15;;
69203;SDS011;56317;27.658;85.326;2023-05-10T06:04:39;28.17;;;10.85;;
69203;SDS011;56317;27.658;85.326;2023-05-10T06:07:06;24.48;;;12.07;;
69203;SDS011;56317;27.658;85.326;2023-05-10T06:09:33;20.85;;;9.00;;
69203;SDS011;56317;27.658;85.326;2023-05-10T06:12:19;28.65;;;9.90;;
69203;SDS011;56317;27.658;85.326;2023-05-10T06:14:46;29.50;;;10.50;;
69203;SDS011;56317;27.658;85.326;2023-05-10T06:17:14;31.77;;;10.00;;
69203;SDS011;56317;27.658;85.326;2023-05-10T06:19:41;24.77;;;9.95;;
69203;SDS011;56317;27.658;85.326;2023-05-10T06:22:08;22.52;;;10.43;;
69203;SDS011;56317;27.658;85.326;2023-05-10T06:24:36;21.23;;;10.13;;
69203;SDS011;56317;27.658;85.326;2023-05-10T06:27:03;23.00;;;8.80;;
69203;SDS011;56317;27.658;85.326;2023-05-10T06:29:32;31.42;;;10.15;;
69203;SDS011;56317;27.658;85.326;2023-05-10T06:31:59;23.33;;;9.13;;
69203;SDS011;56317;27.658;85.326;2023-05-10T06:34:26;23.25;;;10.15;;
69203;SDS011;56317;27.658;85.326;2023-05-10T06:36:57;18.92;;;8.88;;
69203;SDS011;56317;27.658;85.326;2023-05-10T06:39:24;20.92;;;9.80;;
69203;SDS011;56317;27.658;85.326;2023-05-10T06:41:52;24.85;;;9.43;;
69203;SDS011;56317;27.658;85.326;2023-05-10T06:44:20;22.45;;;8.73;;
69203;SDS011;56317;27.658;85.326;2023-05-10T06:46:47;18.77;;;9.15;;
69203;SDS011;56317;27.658;85.326;2023-05-10T06:49:15;24.25;;;9.27;;
69203;SDS011;56317;27.658;85.326;2023-05-10T06:51:42;30.33;;;10.07;;
69203;SDS011;56317;27.658;85.326;2023-05-10T06:54:10;23.33;;;9.65;;
69203;SDS011;56317;27.658;85.326;2023-05-10T06:56:38;22.08;;;9.18;;
69203;SDS011;56317;27.658;85.326;2023-05-10T06:59:05;27.33;;;8.77;;
69203;SDS011;56317;27.658;85.326;2023-05-10T07:01:33;22.00;;;9.40;;
69203;SDS011;56317;27.658;85.326;2023-05-10T07:04:03;38.95;;;19.73;;
69203;SDS011;56317;27.658;85.326;2023-05-10T07:06:31;24.27;;;9.60;;
69203;SDS011;56317;27.658;85.326;2023-05-10T07:08:59;26.23;;;9.00;;
69203;SDS011;56317;27.658;85.326;2023-05-10T07:11:26;28.35;;;9.05;;
69203;SDS011;56317;27.658;85.326;2023-05-10T07:13:54;31.90;;;9.15;;
69203;SDS011;56317;27.658;85.326;2023-05-10T07:16:21;29.70;;;8.68;;
69203;SDS011;56317;27.658;85.326;2023-05-10T07:18:49;22.73;;;8.60;;
69203;SDS011;56317;27.658;85.326;2023-05-10T07:21:16;26.00;;;9.32;;
69203;SDS011;56317;27.658;85.326;2023-05-10T07:23:44;22.98;;;8.38;;
69203;SDS011;56317;27.658;85.326;2023-05-10T07:26:11;30.77;;;8.98;;
69203;SDS011;56317;27.658;85.326;2023-05-10T07:28:40;25.65;;;8.95;;
69203;SDS011;56317;27.658;85.326;2023-05-10T07:31:09;16.08;;;8.00;;
69203;SDS011;56317;27.658;85.326;2023-05-10T07:33:36;23.52;;;8.98;;
69203;SDS011;56317;27.658;85.326;2023-05-10T07:36:04;31.10;;;9.60;;
69203;SDS011;56317;27.658;85.326;2023-05-10T07:38:31;30.50;;;8.88;;
69203;SDS011;56317;27.658;85.326;2023-05-10T07:40:59;24.05;;;8.77;;
69203;SDS011;56317;27.658;85.326;2023-05-10T07:43:27;25.20;;;8.45;;
69203;SDS011;56317;27.658;85.326;2023-05-10T07:45:54;20.95;;;8.77;;
69203;SDS011;56317;27.658;85.326;2023-05-10T07:48:23;20.08;;;8.68;;
69203;SDS011;56317;27.658;85.326;2023-05-10T07:50:53;18.65;;;8.73;;
69203;SDS011;56317;27.658;85.326;2023-05-10T07:53:22;24.17;;;8.77;;
69203;SDS011;56317;27.658;85.326;2023-05-10T07:55:52;21.75;;;8.93;;
69203;SDS011;56317;27.658;85.326;2023-05-10T07:58:24;22.95;;;9.75;;
69203;SDS011;56317;27.658;85.326;2023-05-10T08:00:51;19.60;;;9.68;;
69203;SDS011;56317;27.658;85.326;2023-05-10T08:03:19;24.63;;;10.35;;
69203;SDS011;56317;27.658;85.326;2023-05-10T08:05:46;28.40;;;11.00;;
69203;SDS011;56317;27.658;85.326;2023-05-10T08:08:14;25.70;;;10.38;;
69203;SDS011;56317;27.658;85.326;2023-05-10T08:10:41;26.75;;;10.77;;
69203;SDS011;56317;27.658;85.326;2023-05-10T08:13:08;29.83;;;10.98;;
69203;SDS011;56317;27.658;85.326;2023-05-10T08:15:36;26.17;;;11.07;;
69203;SDS011;56317;27.658;85.326;2023-05-10T08:18:04;25.60;;;11.07;;
69203;SDS011;56317;27.658;85.326;2023-05-10T08:20:31;30.15;;;11.27;;
69203;SDS011;56317;27.658;85.326;2023-05-10T08:22:59;26.83;;;10.45;;
69203;SDS011;56317;27.658;85.326;2023-05-10T08:25:26;23.55;;;11.15;;
69203;SDS011;56317;27.658;85.326;2023-05-10T08:27:54;33.80;;;12.05;;
69203;SDS011;56317;27.658;85.326;2023-05-10T08:30:22;29.83;;;11.40;;
69203;SDS011;56317;27.658;85.326;2023-05-10T08:32:50;34.97;;;12.60;;
69203;SDS011;56317;27.658;85.326;2023-05-10T08:35:17;25.70;;;12.18;;
69203;SDS011;56317;27.658;85.326;2023-05-10T08:37:45;32.22;;;13.45;;
69203;SDS011;56317;27.658;85.326;2023-05-10T08:40:12;35.35;;;13.63;;
69203;SDS011;56317;27.658;85.326;2023-05-10T08:42:43;33.28;;;14.38;;
69203;SDS011;56317;27.658;85.326;2023-05-10T08:45:22;30.17;;;12.15;;
69203;SDS011;56317;27.658;85.326;2023-05-10T08:47:50;34.00;;;14.40;;
69203;SDS011;56317;27.658;85.326;2023-05-10T08:50:19;33.10;;;13.50;;
69203;SDS011;56317;27.658;85.326;2023-05-10T08:52:51;26.60;;;13.02;;
69203;SDS011;56317;27.658;85.326;2023-05-10T08:55:21;36.40;;;13.73;;
69203;SDS011;56317;27.658;85.326;2023-05-10T08:57:49;26.98;;;13.30;;
69203;SDS011;56317;27.658;85.326;2023-05-10T09:00:17;25.95;;;13.00;;
69203;SDS011;56317;27.658;85.326;2023-05-10T09:02:45;28.50;;;13.48;;
69203;SDS011;56317;27.658;85.326;2023-05-10T09:05:14;32.78;;;12.93;;
69203;SDS011;56317;27.658;85.326;2023-05-10T09:07:43;33.65;;;13.82;;
69203;SDS011;56317;27.658;85.326;2023-05-10T09:10:11;25.88;;;14.18;;
69203;SDS011;56317;27.658;85.326;2023-05-10T09:12:38;26.60;;;12.40;;
69203;SDS011;56317;27.658;85.326;2023-05-10T09:15:07;28.92;;;12.55;;
69203;SDS011;56317;27.658;85.326;2023-05-10T09:17:37;40.95;;;13.80;;
69203;SDS011;56317;27.658;85.326;2023-05-10T09:20:06;29.17;;;13.35;;
69203;SDS011;56317;27.658;85.326;2023-05-10T09:22:34;33.85;;;12.23;;
69203;SDS011;56317;27.658;85.326;2023-05-10T09:25:12;30.25;;;13.43;;
69203;SDS011;56317;27.658;85.326;2023-05-10T09:27:43;29.63;;;12.68;;
69203;SDS011;56317;27.658;85.326;2023-05-10T09:30:16;36.55;;;13.57;;
69203;SDS011;56317;27.658;85.326;2023-05-10T09:32:51;30.17;;;11.77;;
69203;SDS011;56317;27.658;85.326;2023-05-10T09:35:19;28.23;;;11.50;;
69203;SDS011;56317;27.658;85.326;2023-05-10T09:37:50;30.55;;;11.57;;
69203;SDS011;56317;27.658;85.326;2023-05-10T09:40:23;29.60;;;11.48;;
69203;SDS011;56317;27.658;85.326;2023-05-10T09:42:56;28.77;;;12.45;;
69203;SDS011;56317;27.658;85.326;2023-05-10T09:45:31;32.15;;;11.43;;
69203;SDS011;56317;27.658;85.326;2023-05-10T09:48:05;27.30;;;11.18;;
69203;SDS011;56317;27.658;85.326;2023-05-10T09:50:33;36.28;;;12.57;;
69203;SDS011;56317;27.658;85.326;2023-05-10T09:53:02;30.77;;;11.18;;
69203;SDS011;56317;27.658;85.326;2023-05-10T09:58:12;28.45;;;10.30;;
69203;SDS011;56317;27.658;85.326;2023-05-10T10:00:40;26.65;;;10.60;;
69203;SDS011;56317;27.658;85.326;2023-05-10T10:03:15;28.42;;;10.40;;
69203;SDS011;56317;27.658;85.326;2023-05-10T10:05:46;23.65;;;9.52;;
69203;SDS011;56317;27.658;85.326;2023-05-10T10:08:14;29.05;;;10.25;;
69203;SDS011;56317;27.658;85.326;2023-05-10T10:10:43;21.40;;;9.25;;
69203;SDS011;56317;27.658;85.326;2023-05-10T10:13:11;34.90;;;14.35;;
69203;SDS011;56317;27.658;85.326;2023-05-10T10:15:40;25.42;;;8.45;;
69203;SDS011;56317;27.658;85.326;2023-05-10T10:18:13;25.42;;;9.20;;
69203;SDS011;56317;27.658;85.326;2023-05-10T10:20:44;23.23;;;9.02;;
69203;SDS011;56317;27.658;85.326;2023-05-10T10:23:11;25.50;;;8.40;;
69203;SDS011;56317;27.658;85.326;2023-05-10T10:25:39;19.92;;;8.52;;
69203;SDS011;56317;27.658;85.326;2023-05-10T10:31:40;26.98;;;8.15;;
69203;SDS011;56317;27.658;85.326;2023-05-10T10:34:28;18.05;;;8.23;;
69203;SDS011;56317;27.658;85.326;2023-05-10T10:36:57;21.90;;;7.88;;
69203;SDS011;56317;27.658;85.326;2023-05-10T10:39:30;16.63;;;6.97;;
69203;SDS011;56317;27.658;85.326;2023-05-10T10:41:58;24.92;;;7.85;;
69203;SDS011;56317;27.658;85.326;2023-05-10T10:44:33;22.60;;;7.50;;
69203;SDS011;56317;27.658;85.326;2023-05-10T10:52:35;25.90;;;7.78;;
69203;SDS011;56317;27.658;85.326;2023-05-10T10:55:07;27.95;;;7.60;;
69203;SDS011;56317;27.658;85.326;2023-05-10T11:00:22;34.72;;;8.55;;
69203;SDS011;56317;27.658;85.326;2023-05-10T11:08:09;24.98;;;9.35;;
69203;SDS011;56317;27.658;85.326;2023-05-10T11:10:50;25.80;;;9.23;;
69203;SDS011;56317;27.658;85.326;2023-05-10T11:16:21;31.27;;;9.55;;
69203;SDS011;56317;27.658;85.326;2023-05-10T11:21:49;30.60;;;10.35;;
69203;SDS011;56317;27.658;85.326;2023-05-10T11:24:36;30.48;;;10.30;;
69203;SDS011;56317;27.658;85.326;2023-05-10T11:27:04;34.38;;;10.23;;
69203;SDS011;56317;27.658;85.326;2023-05-10T11:29:32;26.92;;;10.60;;
69203;SDS011;56317;27.658;85.326;2023-05-10T11:32:00;24.15;;;9.00;;
69203;SDS011;56317;27.658;85.326;2023-05-10T11:36:56;29.52;;;9.85;;
69203;SDS011;56317;27.658;85.326;2023-05-10T11:39:27;30.00;;;10.70;;
69203;SDS011;56317;27.658;85.326;2023-05-10T11:41:56;30.60;;;10.48;;
69203;SDS011;56317;27.658;85.326;2023-05-10T11:44:29;29.60;;;10.27;;
69203;SDS011;56317;27.658;85.326;2023-05-10T11:47:02;33.30;;;10.07;;
69203;SDS011;56317;27.658;85.326;2023-05-10T11:49:31;31.10;;;10.88;;
69203;SDS011;56317;27.658;85.326;2023-05-10T11:52:05;31.50;;;10.23;;
69203;SDS011;56317;27.658;85.326;2023-05-10T11:54:33;30.42;;;9.55;;
69203;SDS011;56317;27.658;85.326;2023-05-10T11:57:01;31.40;;;11.30;;
69203;SDS011;56317;27.658;85.326;2023-05-10T11:59:29;29.48;;;10.13;;
69203;SDS011;56317;27.658;85.326;2023-05-10T12:01:57;33.50;;;10.60;;
69203;SDS011;56317;27.658;85.326;2023-05-10T12:04:25;28.85;;;11.18;;
69203;SDS011;56317;27.658;85.326;2023-05-10T12:06:54;31.52;;;11.60;;
69203;SDS011;56317;27.658;85.326;2023-05-10T12:09:22;34.67;;;11.27;;
69203;SDS011;56317;27.658;85.326;2023-05-10T12:11:50;39.75;;;11.88;;
69203;SDS011;56317;27.658;85.326;2023-05-10T12:14:26;35.95;;;11.15;;
69203;SDS011;56317;27.658;85.326;2023-05-10T12:16:56;37.00;;;11.45;;
69203;SDS011;56317;27.658;85.326;2023-05-10T12:19:24;26.10;;;10.32;;
69203;SDS011;56317;27.658;85.326;2023-05-10T12:21:51;30.60;;;10.73;;
69203;SDS011;56317;27.658;85.326;2023-05-10T12:24:19;30.25;;;10.75;;
69203;SDS011;56317;27.658;85.326;2023-05-10T12:26:47;37.55;;;11.57;;
69203;SDS011;56317;27.658;85.326;2023-05-10T12:29:18;41.13;;;11.82;;
69203;SDS011;56317;27.658;85.326;2023-05-10T12:31:55;38.05;;;11.20;;
69203;SDS011;56317;27.658;85.326;2023-05-10T12:34:25;37.97;;;12.43;;
69203;SDS011;56317;27.658;85.326;2023-05-10T12:37:02;25.95;;;11.73;;
69203;SDS011;56317;27.658;85.326;2023-05-10T12:39:39;31.25;;;11.50;;
69203;SDS011;56317;27.658;85.326;2023-05-10T12:42:07;40.55;;;13.27;;
69203;SDS011;56317;27.658;85.326;2023-05-10T12:44:35;34.30;;;10.90;;
69203;SDS011;56317;27.658;85.326;2023-05-10T12:47:03;36.63;;;12.88;;
69203;SDS011;56317;27.658;85.326;2023-05-10T12:49:31;30.42;;;12.75;;
69203;SDS011;56317;27.658;85.326;2023-05-10T12:51:59;32.95;;;12.52;;
69203;SDS011;56317;27.658;85.326;2023-05-10T12:54:27;27.27;;;11.30;;
69203;SDS011;56317;27.658;85.326;2023-05-10T12:56:54;31.48;;;12.07;;
69203;SDS011;56317;27.658;85.326;2023-05-10T12:59:21;30.23;;;11.57;;
69203;SDS011;56317;27.658;85.326;2023-05-10T13:01:49;29.48;;;11.05;;
69203;SDS011;56317;27.658;85.326;2023-05-10T13:04:17;31.73;;;11.85;;
69203;SDS011;56317;27.658;85.326;2023-05-10T13:06:44;28.48;;;13.23;;
69203;SDS011;56317;27.658;85.326;2023-05-10T13:09:15;34.13;;;13.93;;
69203;SDS011;56317;27.658;85.326;2023-05-10T13:11:43;35.40;;;13.07;;
69203;SDS011;56317;27.658;85.326;2023-05-10T13:14:11;37.90;;;13.18;;
69203;SDS011;56317;27.658;85.326;2023-05-10T13:16:40;27.95;;;13.32;;
69203;SDS011;56317;27.658;85.326;2023-05-10T13:19:07;38.55;;;13.15;;
69203;SDS011;56317;27.658;85.326;2023-05-10T13:21:35;41.08;;;14.55;;
69203;SDS011;56317;27.658;85.326;2023-05-10T13:24:02;33.38;;;14.10;;
69203;SDS011;56317;27.658;85.326;2023-05-10T13:26:31;50.15;;;16.42;;
69203;SDS011;56317;27.658;85.326;2023-05-10T13:28:58;48.78;;;16.52;;
69203;SDS011;56317;27.658;85.326;2023-05-10T13:31:26;38.00;;;16.10;;
69203;SDS011;56317;27.658;85.326;2023-05-10T13:33:53;41.10;;;16.38;;
69203;SDS011;56317;27.658;85.326;2023-05-10T13:36:21;43.53;;;15.82;;
69203;SDS011;56317;27.658;85.326;2023-05-10T13:38:49;40.10;;;14.73;;
69203;SDS011;56317;27.658;85.326;2023-05-10T13:41:16;38.63;;;15.38;;
69203;SDS011;56317;27.658;85.326;2023-05-10T13:43:44;46.10;;;16.42;;
69203;SDS011;56317;27.658;85.326;2023-05-10T13:46:14;45.70;;;15.70;;
69203;SDS011;56317;27.658;85.326;2023-05-10T13:48:41;34.83;;;15.40;;
69203;SDS011;56317;27.658;85.326;2023-05-10T13:51:09;38.50;;;16.08;;
69203;SDS011;56317;27.658;85.326;2023-05-10T13:53:38;34.75;;;15.18;;
69203;SDS011;56317;27.658;85.326;2023-05-10T13:56:09;34.53;;;14.43;;
69203;SDS011;56317;27.658;85.326;2023-05-10T14:01:03;39.78;;;15.57;;
69203;SDS011;56317;27.658;85.326;2023-05-10T14:03:32;38.30;;;15.07;;
69203;SDS011;56317;27.658;85.326;2023-05-10T14:06:00;47.28;;;15.35;;
69203;SDS011;56317;27.658;85.326;2023-05-10T14:08:28;35.08;;;13.38;;
69203;SDS011;56317;27.658;85.326;2023-05-10T14:10:55;43.83;;;15.68;;
69203;SDS011;56317;27.658;85.326;2023-05-10T14:13:23;36.78;;;15.68;;
69203;SDS011;56317;27.658;85.326;2023-05-10T14:15:52;38.35;;;14.80;;
69203;SDS011;56317;27.658;85.326;2023-05-10T14:18:20;41.33;;;15.93;;
69203;SDS011;56317;27.658;85.326;2023-05-10T14:20:48;54.75;;;16.30;;
69203;SDS011;56317;27.658;85.326;2023-05-10T14:23:16;51.65;;;15.02;;
69203;SDS011;56317;27.658;85.326;2023-05-10T14:25:45;49.13;;;15.93;;
69203;SDS011;56317;27.658;85.326;2023-05-10T14:28:16;44.50;;;15.30;;
69203;SDS011;56317;27.658;85.326;2023-05-10T14:30:48;37.25;;;16.27;;
69203;SDS011;56317;27.658;85.326;2023-05-10T14:33:19;41.92;;;14.00;;
69203;SDS011;56317;27.658;85.326;2023-05-10T14:35:49;40.90;;;14.82;;
69203;SDS011;56317;27.658;85.326;2023-05-10T14:38:17;38.42;;;15.20;;
69203;SDS011;56317;27.658;85.326;2023-05-10T14:40:44;40.85;;;14.90;;
69203;SDS011;56317;27.658;85.326;2023-05-10T14:43:12;43.63;;;14.88;;
69203;SDS011;56317;27.658;85.326;2023-05-10T14:45:40;37.58;;;13.70;;
69203;SDS011;56317;27.658;85.326;2023-05-10T14:48:07;47.42;;;15.95;;
69203;SDS011;56317;27.658;85.326;2023-05-10T14:50:38;50.70;;;17.52;;
69203;SDS011;56317;27.658;85.326;2023-05-10T14:53:06;55.45;;;15.52;;
69203;SDS011;56317;27.658;85.326;2023-05-10T14:55:34;49.85;;;16.25;;
69203;SDS011;56317;27.658;85.326;2023-05-10T14:58:02;49.20;;;17.35;;
69203;SDS011;56317;27.658;85.326;2023-05-10T15:00:29;42.50;;;17.35;;
69203;SDS011;56317;27.658;85.326;2023-05-10T15:03:00;54.45;;;16.35;;
69203;SDS011;56317;27.658;85.326;2023-05-10T15:05:27;53.60;;;17.40;;
69203;SDS011;56317;27.658;85.326;2023-05-10T15:07:55;45.95;;;17.95;;
69203;SDS011;56317;27.658;85.326;2023-05-10T15:10:23;51.50;;;17.50;;